createdAt,value
2023-04-19T00:02:22.532Z,93710.06
2023-04-19T00:04:49.447Z,93710.91
2023-04-19T00:07:18.508Z,93708.97
2023-04-19T00:09:45.203Z,93707.34
2023-04-19T00:12:11.905Z,93705.44
2023-04-19T00:14:38.530Z,93705.41
2023-04-19T00:17:05.231Z,93706.03
2023-04-19T00:19:31.918Z,93702.38
2023-04-19T00:21:58.606Z,93704.59
2023-04-19T00:24:25.234Z,93702.34
2023-04-19T00:26:51.904Z,93701.28
2023-04-19T00:29:18.538Z,93695.84
2023-04-19T00:31:45.186Z,93702.75
2023-04-19T00:34:11.789Z,93700.84
2023-04-19T00:36:38.434Z,93698.25
2023-04-19T00:39:05.049Z,93708.16
2023-04-19T00:41:31.691Z,93693.75
2023-04-19T00:43:58.318Z,93692.34
2023-04-19T00:46:26.001Z,93705.81
2023-04-19T00:48:53.028Z,93696.19
2023-04-19T00:51:20.368Z,93704.72
2023-04-19T00:53:47.052Z,93695.06
2023-04-19T00:56:14.834Z,93696.16
2023-04-19T00:58:41.660Z,93698.53
2023-04-19T01:01:08.372Z,93682.53
2023-04-19T01:03:36.747Z,93691.06
2023-04-19T01:06:03.731Z,93682.66
2023-04-19T01:08:30.889Z,93677.75
2023-04-19T01:10:57.525Z,93689.13
2023-04-19T01:13:24.471Z,93685.31
2023-04-19T01:15:51.754Z,93684.25
2023-04-19T01:18:19.519Z,93677.91
2023-04-19T01:20:46.290Z,93676.97
2023-04-19T01:23:13.014Z,93675.75
2023-04-19T01:25:39.649Z,93680.25
2023-04-19T01:28:06.609Z,93671.47
2023-04-19T01:30:34.422Z,93670.63
2023-04-19T01:33:01.053Z,93669.69
2023-04-19T01:35:27.724Z,93676.53
2023-04-19T01:37:56.356Z,93683.53
2023-04-19T01:40:25.678Z,93680.31
2023-04-19T01:42:53.252Z,93671.00
2023-04-19T01:45:20.312Z,93669.19
2023-04-19T01:47:47.024Z,93676.50
2023-04-19T01:50:13.761Z,93673.00
2023-04-19T01:52:40.448Z,93670.25
2023-04-19T01:55:07.303Z,93666.53
2023-04-19T01:57:33.946Z,93666.84
2023-04-19T02:00:01.970Z,93665.28
2023-04-19T02:02:28.590Z,93676.09
2023-04-19T02:04:55.305Z,93665.91
2023-04-19T02:07:21.898Z,93666.72
2023-04-19T02:09:48.534Z,93678.72
2023-04-19T02:12:15.693Z,93672.00
2023-04-19T02:14:42.296Z,93679.53
2023-04-19T02:17:09.110Z,93673.13
2023-04-19T02:19:36.343Z,93675.50
2023-04-19T02:22:03.245Z,93669.56
2023-04-19T02:24:29.859Z,93673.34
2023-04-19T02:26:56.515Z,93667.66
2023-04-19T02:29:23.227Z,93671.81
2023-04-19T02:31:50.606Z,93665.03
2023-04-19T02:34:17.926Z,93663.38
2023-04-19T02:36:44.703Z,93667.56
2023-04-19T02:39:11.349Z,93667.66
2023-04-19T02:41:38.032Z,93658.44
2023-04-19T02:44:04.879Z,93662.56
2023-04-19T02:46:31.685Z,93661.09
2023-04-19T02:49:01.129Z,93660.53
2023-04-19T02:51:27.829Z,93655.75
2023-04-19T02:53:54.423Z,93658.88
2023-04-19T02:56:21.064Z,93661.28
2023-04-19T02:58:47.709Z,93656.63
2023-04-19T03:01:14.436Z,93662.09
2023-04-19T03:03:41.305Z,93658.84
2023-04-19T03:06:08.407Z,93656.59
2023-04-19T03:08:35.014Z,93660.44
2023-04-19T03:11:02.193Z,93660.13
2023-04-19T03:13:28.747Z,93663.00
2023-04-19T03:15:55.883Z,93664.16
2023-04-19T03:18:22.555Z,93665.69
2023-04-19T03:20:49.171Z,93660.78
2023-04-19T03:23:15.878Z,93659.31
2023-04-19T03:25:42.569Z,93657.22
2023-04-19T03:28:09.194Z,93661.38
2023-04-19T03:30:35.799Z,93653.22
2023-04-19T03:33:02.477Z,93661.81
2023-04-19T03:35:30.923Z,93659.06
2023-04-19T03:37:57.550Z,93657.94
2023-04-19T03:40:24.534Z,93668.22
2023-04-19T03:42:51.131Z,93664.38
2023-04-19T03:45:17.787Z,93657.38
2023-04-19T03:47:44.395Z,93656.06
2023-04-19T03:50:10.997Z,93660.09
2023-04-19T03:52:37.706Z,93656.00
2023-04-19T03:55:04.770Z,93657.47
2023-04-19T03:57:31.386Z,93662.16
2023-04-19T03:59:57.974Z,93654.69
2023-04-19T04:02:24.790Z,93653.84
2023-04-19T04:04:55.257Z,93657.84
2023-04-19T04:07:23.280Z,93649.56
2023-04-19T04:09:50.285Z,93654.63
2023-04-19T04:12:16.963Z,93656.88
2023-04-19T04:14:43.651Z,93659.13
2023-04-19T04:17:10.274Z,93656.84
2023-04-19T04:19:36.900Z,93660.31
2023-04-19T04:22:04.043Z,93659.06
2023-04-19T04:24:32.920Z,93662.78
2023-04-19T04:27:00.986Z,93666.16
2023-04-19T04:29:29.056Z,93660.78
2023-04-19T04:31:56.908Z,93664.84
2023-04-19T04:34:24.681Z,93670.16
2023-04-19T04:36:51.338Z,93672.44
2023-04-19T04:39:18.346Z,93673.47
2023-04-19T04:41:45.063Z,93673.03
2023-04-19T04:44:23.318Z,93668.88
2023-04-19T04:46:50.306Z,93670.53
2023-04-19T04:49:17.020Z,93675.44
2023-04-19T04:51:43.857Z,93680.53
2023-04-19T04:54:10.502Z,93675.50
2023-04-19T04:56:37.132Z,93679.59
2023-04-19T04:59:03.815Z,93679.69
2023-04-19T05:01:30.638Z,93680.06
2023-04-19T05:03:57.293Z,93674.44
2023-04-19T05:06:24.011Z,93679.22
2023-04-19T05:08:50.701Z,93681.94
2023-04-19T05:11:17.425Z,93676.09
2023-04-19T05:13:44.163Z,93674.63
2023-04-19T05:16:10.886Z,93678.81
2023-04-19T05:18:37.605Z,93688.53
2023-04-19T05:21:04.451Z,93682.06
2023-04-19T05:23:31.069Z,93682.50
2023-04-19T05:25:57.648Z,93690.00
2023-04-19T05:28:24.265Z,93687.41
2023-04-19T05:30:52.366Z,93684.84
2023-04-19T05:33:18.970Z,93690.06
2023-04-19T05:35:45.562Z,93691.69
2023-04-19T05:38:12.126Z,93685.09
2023-04-19T05:40:40.135Z,93688.31
2023-04-19T05:43:06.888Z,93692.25
2023-04-19T05:45:33.546Z,93693.56
2023-04-19T05:48:00.278Z,93687.75
2023-04-19T05:50:26.885Z,93695.97
2023-04-19T05:52:53.473Z,93690.28
2023-04-19T05:55:20.265Z,93685.94
2023-04-19T05:57:46.965Z,93692.56
2023-04-19T06:00:14.130Z,93691.78
2023-04-19T06:02:41.064Z,93691.66
2023-04-19T06:05:10.758Z,93691.47
2023-04-19T06:07:43.331Z,93700.44
2023-04-19T06:10:18.453Z,93702.31
2023-04-19T06:12:45.034Z,93706.06
2023-04-19T06:15:11.982Z,93692.94
2023-04-19T06:17:38.691Z,93695.72
2023-04-19T06:20:07.841Z,93703.88
2023-04-19T06:22:34.529Z,93704.88
2023-04-19T06:25:02.249Z,93702.47
2023-04-19T06:27:28.942Z,93700.63
2023-04-19T06:29:55.558Z,93699.50
2023-04-19T06:32:22.205Z,93704.66
2023-04-19T06:34:48.872Z,93705.75
2023-04-19T06:37:15.506Z,93706.63
2023-04-19T06:39:42.151Z,93715.28
2023-04-19T06:42:08.775Z,93712.31
2023-04-19T06:44:35.386Z,93710.72
2023-04-19T06:47:02.331Z,93709.56
2023-04-19T06:49:29.160Z,93710.22
2023-04-19T06:51:56.281Z,93719.28
2023-04-19T06:54:22.928Z,93718.81
2023-04-19T06:56:50.279Z,93716.41
2023-04-19T06:59:20.991Z,93726.47
2023-04-19T07:01:48.282Z,93718.69
2023-04-19T07:04:16.029Z,93720.41
2023-04-19T07:06:42.952Z,93717.09
2023-04-19T07:09:09.598Z,93722.97
2023-04-19T07:11:36.227Z,93711.69
2023-04-19T07:14:02.882Z,93715.69
2023-04-19T07:16:29.790Z,93723.97
2023-04-19T07:18:57.260Z,93722.66
2023-04-19T07:21:26.752Z,93717.91
2023-04-19T07:23:53.447Z,93726.25
2023-04-19T07:26:20.432Z,93722.63
2023-04-19T07:28:47.155Z,93726.88
2023-04-19T07:31:18.085Z,93722.84
2023-04-19T07:33:45.187Z,93729.84
2023-04-19T07:36:11.921Z,93725.41
2023-04-19T07:38:38.714Z,93726.66
2023-04-19T07:41:06.039Z,93726.81
2023-04-19T07:43:32.749Z,93727.66
2023-04-19T07:45:59.453Z,93726.13
2023-04-19T07:48:28.105Z,93720.63
2023-04-19T07:50:55.652Z,93730.03
2023-04-19T07:53:22.271Z,93722.28
2023-04-19T07:55:48.888Z,93725.56
2023-04-19T07:58:15.656Z,93729.91
2023-04-19T08:00:42.343Z,93722.81
2023-04-19T08:03:09.160Z,93726.72
2023-04-19T08:05:36.162Z,93726.19
2023-04-19T08:08:02.928Z,93726.00
2023-04-19T08:10:30.794Z,93726.72
2023-04-19T08:13:05.769Z,93724.25
2023-04-19T08:18:05.175Z,93726.44
2023-04-19T08:20:32.704Z,93721.25
2023-04-19T08:23:04.553Z,93725.84
2023-04-19T08:25:40.188Z,93721.06
2023-04-19T08:28:06.902Z,93725.69
2023-04-19T08:30:33.571Z,93722.47
2023-04-19T08:33:02.346Z,93723.06
2023-04-19T08:35:29.006Z,93725.13
2023-04-19T08:37:55.696Z,93724.53
2023-04-19T08:40:22.311Z,93726.81
2023-04-19T08:42:49.004Z,93723.59
2023-04-19T08:45:27.755Z,93715.63
2023-04-19T08:48:01.417Z,93709.50
2023-04-19T08:53:12.116Z,93709.19
2023-04-19T08:56:06.850Z,93706.25
2023-04-19T09:01:06.315Z,93700.25
2023-04-19T09:03:40.821Z,93704.53
2023-04-19T09:06:12.473Z,93705.31
2023-04-19T09:08:40.694Z,93694.97
2023-04-19T09:11:07.562Z,93708.09
2023-04-19T09:13:36.896Z,93707.59
2023-04-19T09:16:04.942Z,93700.00
2023-04-19T09:18:33.183Z,93696.91
2023-04-19T09:21:02.495Z,93690.22
2023-04-19T09:23:29.200Z,93686.44
2023-04-19T09:26:22.041Z,93680.50
2023-04-19T09:29:02.186Z,93684.00
2023-04-19T09:31:47.952Z,93690.81
2023-04-19T09:34:18.067Z,93690.19
2023-04-19T09:36:45.346Z,93688.88
2023-04-19T09:39:12.347Z,93687.09
2023-04-19T09:41:54.964Z,93690.56
2023-04-19T09:44:52.923Z,93683.75
2023-04-19T09:47:30.033Z,93684.59
2023-04-19T09:50:21.929Z,93673.88
2023-04-19T09:52:52.426Z,93673.28
2023-04-19T09:57:49.560Z,93681.13
2023-04-19T10:00:16.450Z,93671.09
2023-04-19T10:02:45.240Z,93681.81
2023-04-19T10:05:20.744Z,93676.03
2023-04-19T10:07:50.174Z,93676.44
2023-04-19T10:10:20.989Z,93675.94
2023-04-19T10:13:11.496Z,93666.56
2023-04-19T10:15:50.055Z,93670.50
2023-04-19T10:18:18.581Z,93668.31
2023-04-19T10:20:55.390Z,93659.28
2023-04-19T10:23:23.093Z,93663.84
2023-04-19T10:25:59.616Z,93652.66
2023-04-19T10:28:30.080Z,93652.53
2023-04-19T10:31:05.042Z,93657.06
2023-04-19T10:33:35.619Z,93646.63
2023-04-19T10:36:02.782Z,93644.34
2023-04-19T10:38:44.512Z,93651.88
2023-04-19T10:41:17.357Z,93641.06
2023-04-19T10:43:47.388Z,93632.09
2023-04-19T10:46:13.993Z,93637.56
2023-04-19T10:48:53.562Z,93639.19
2023-04-19T10:51:23.147Z,93629.50
2023-04-19T10:53:55.681Z,93632.63
2023-04-19T10:57:02.464Z,93638.78
2023-04-19T10:59:33.591Z,93626.78
2023-04-19T11:02:02.524Z,93625.66
2023-04-19T11:04:32.442Z,93620.38
2023-04-19T11:07:02.648Z,93625.19
2023-04-19T11:09:34.790Z,93621.75
2023-04-19T11:12:08.627Z,93610.63
2023-04-19T11:14:46.494Z,93615.75
2023-04-19T11:17:18.880Z,93616.13
2023-04-19T11:19:56.106Z,93612.69
2023-04-19T11:22:37.325Z,93617.63
2023-04-19T11:25:07.163Z,93609.59
2023-04-19T11:27:34.805Z,93612.72
2023-04-19T11:30:20.233Z,93611.16
2023-04-19T11:32:52.906Z,93622.41
2023-04-19T11:35:21.794Z,93613.81
2023-04-19T11:37:49.044Z,93617.31
2023-04-19T11:40:20.897Z,93613.44
2023-04-19T11:42:53.403Z,93613.47
2023-04-19T11:45:31.654Z,93608.47
2023-04-19T11:48:02.323Z,93600.28
2023-04-19T11:50:33.550Z,93600.81
2023-04-19T11:53:09.505Z,93597.75
2023-04-19T11:55:36.433Z,93602.44
2023-04-19T11:58:03.111Z,93604.97
2023-04-19T12:00:30.672Z,93583.75
2023-04-19T12:02:57.897Z,93600.22
2023-04-19T12:05:24.783Z,93601.13
2023-04-19T12:08:06.819Z,93601.75
2023-04-19T12:10:34.463Z,93594.97
2023-04-19T12:13:02.257Z,93598.84
2023-04-19T12:15:42.916Z,93588.09
2023-04-19T12:18:09.842Z,93592.63
2023-04-19T12:20:38.093Z,93580.56
2023-04-19T12:23:04.932Z,93591.16
2023-04-19T12:25:33.350Z,93589.91
2023-04-19T12:28:02.243Z,93577.28
2023-04-19T12:30:28.957Z,93585.00
2023-04-19T12:32:56.117Z,93593.84
2023-04-19T12:35:24.420Z,93591.06
2023-04-19T12:37:53.132Z,93581.91
2023-04-19T12:40:20.088Z,93580.41
2023-04-19T12:42:46.965Z,93578.00
2023-04-19T12:45:14.332Z,93582.69
2023-04-19T12:47:42.114Z,93574.16
2023-04-19T12:50:09.266Z,93580.97
2023-04-19T12:52:36.320Z,93583.34
2023-04-19T12:55:03.270Z,93587.44
2023-04-19T12:57:30.251Z,93592.66
2023-04-19T12:59:56.915Z,93583.09
2023-04-19T13:02:23.792Z,93577.84
2023-04-19T13:04:51.245Z,93577.94
2023-04-19T13:07:17.948Z,93596.88
2023-04-19T13:09:44.549Z,93601.94
2023-04-19T13:12:11.207Z,93587.72
2023-04-19T13:14:37.821Z,93607.28
2023-04-19T13:17:04.499Z,93604.25
2023-04-19T13:19:31.208Z,93614.22
2023-04-19T13:21:57.872Z,93619.69
2023-04-19T13:24:24.425Z,93611.28
2023-04-19T13:26:51.077Z,93606.38
2023-04-19T13:29:17.738Z,93604.22
2023-04-19T13:31:44.426Z,93607.28
2023-04-19T13:34:11.169Z,93602.69
2023-04-19T13:36:37.900Z,93601.91
2023-04-19T13:39:05.900Z,93595.78
2023-04-19T13:41:34.316Z,93599.59
2023-04-19T13:44:00.958Z,93605.00
2023-04-19T13:46:27.764Z,93595.78
2023-04-19T13:48:54.463Z,93591.88
2023-04-19T13:51:21.177Z,93590.66
2023-04-19T13:53:47.848Z,93592.69
2023-04-19T13:56:15.197Z,93601.13
2023-04-19T13:58:41.857Z,93594.94
2023-04-19T14:01:08.875Z,93600.34
2023-04-19T14:03:35.848Z,93597.94
2023-04-19T14:06:02.606Z,93594.63
2023-04-19T14:08:29.195Z,93577.22
2023-04-19T14:10:55.862Z,93577.63
2023-04-19T14:13:22.675Z,93590.88
2023-04-19T14:15:49.314Z,93586.16
2023-04-19T14:18:16.141Z,93587.31
2023-04-19T14:20:42.904Z,93583.38
2023-04-19T14:23:09.623Z,93581.47
2023-04-19T14:25:36.897Z,93578.50
2023-04-19T14:28:03.639Z,93582.31
2023-04-19T14:30:31.190Z,93584.25
2023-04-19T14:32:58.199Z,93580.38
2023-04-19T14:35:24.940Z,93581.53
2023-04-19T14:37:51.557Z,93581.19
2023-04-19T14:40:19.986Z,93579.25
2023-04-19T14:42:46.624Z,93573.09
2023-04-19T14:45:13.201Z,93564.00
2023-04-19T14:47:40.058Z,93581.13
2023-04-19T14:50:07.258Z,93581.84
2023-04-19T14:52:34.665Z,93580.56
2023-04-19T14:55:01.332Z,93579.53
2023-04-19T14:57:28.144Z,93578.59
2023-04-19T14:59:58.815Z,93589.53
2023-04-19T15:02:25.825Z,93583.13
2023-04-19T15:04:53.452Z,93588.06
2023-04-19T15:07:20.552Z,93582.03
2023-04-19T15:09:47.195Z,93585.59
2023-04-19T15:12:13.877Z,93581.78
2023-04-19T15:14:40.634Z,93591.69
2023-04-19T15:17:07.255Z,93588.16
2023-04-19T15:19:33.897Z,93586.72
2023-04-19T15:22:00.501Z,93599.19
2023-04-19T15:24:27.184Z,93598.00
2023-04-19T15:26:53.881Z,93598.81
2023-04-19T15:29:20.638Z,93594.81
2023-04-19T15:31:47.309Z,93599.34
2023-04-19T15:34:14.055Z,93606.69
2023-04-19T15:36:41.046Z,93616.44
2023-04-19T15:39:07.881Z,93613.09
2023-04-19T15:41:34.597Z,93611.84
2023-04-19T15:44:01.191Z,93611.50
2023-04-19T15:46:27.852Z,93617.66
2023-04-19T15:48:54.411Z,93621.91
2023-04-19T15:51:21.003Z,93611.00
2023-04-19T15:53:47.664Z,93619.56
2023-04-19T15:56:14.279Z,93624.19
2023-04-19T15:58:41.360Z,93625.09
2023-04-19T16:01:11.269Z,93616.41
2023-04-19T16:03:38.111Z,93618.03
2023-04-19T16:06:04.982Z,93629.53
2023-04-19T16:08:31.617Z,93618.38
2023-04-19T16:10:58.270Z,93624.19
2023-04-19T16:13:25.023Z,93612.69
2023-04-19T16:15:51.658Z,93615.00
2023-04-19T16:18:18.326Z,93614.53
2023-04-19T16:20:45.008Z,93620.38
2023-04-19T16:23:12.094Z,93620.38
2023-04-19T16:25:38.734Z,93622.59
2023-04-19T16:28:06.020Z,93626.41
2023-04-19T16:30:32.705Z,93624.81
2023-04-19T16:32:59.447Z,93634.94
2023-04-19T16:35:26.847Z,93634.19
2023-04-19T16:37:55.880Z,93634.94
2023-04-19T16:40:24.234Z,93639.53
2023-04-19T16:42:51.023Z,93634.97
2023-04-19T16:45:18.057Z,93636.84
2023-04-19T16:47:46.193Z,93640.31
2023-04-19T16:50:13.711Z,93641.50
2023-04-19T16:52:40.520Z,93641.91
2023-04-19T16:55:07.889Z,93640.75
2023-04-19T16:57:34.551Z,93648.44
2023-04-19T17:00:02.246Z,93643.78
2023-04-19T17:02:29.091Z,93657.25
2023-04-19T17:04:56.372Z,93651.44
2023-04-19T17:07:23.055Z,93651.88
2023-04-19T17:09:49.784Z,93668.41
2023-04-19T17:12:16.381Z,93672.25
2023-04-19T17:14:42.953Z,93677.63
2023-04-19T17:17:09.614Z,93681.00
2023-04-19T17:19:36.739Z,93678.34
2023-04-19T17:22:05.200Z,93691.06
2023-04-19T17:24:33.623Z,93691.13
2023-04-19T17:27:00.899Z,93691.69
2023-04-19T17:29:27.606Z,93688.72
2023-04-19T17:31:54.491Z,93698.66
2023-04-19T17:34:21.165Z,93699.41
2023-04-19T17:36:47.782Z,93713.13
2023-04-19T17:39:14.441Z,93708.22
2023-04-19T17:41:41.722Z,93711.88
2023-04-19T17:44:08.337Z,93714.78
2023-04-19T17:46:34.927Z,93726.97
2023-04-19T17:49:02.183Z,93716.59
2023-04-19T17:51:28.720Z,93732.13
2023-04-19T17:53:55.424Z,93738.28
2023-04-19T17:56:22.443Z,93739.63
2023-04-19T17:58:49.145Z,93742.53
2023-04-19T18:01:16.344Z,93748.22
2023-04-19T18:03:43.212Z,93745.63
2023-04-19T18:06:13.076Z,93753.31
2023-04-19T18:08:39.658Z,93750.63
2023-04-19T18:11:07.030Z,93751.25
2023-04-19T18:13:33.593Z,93761.16
2023-04-19T18:16:00.590Z,93757.81
2023-04-19T18:18:27.193Z,93755.16
2023-04-19T18:20:53.887Z,93764.34
2023-04-19T18:23:20.493Z,93765.13
2023-04-19T18:26:01.003Z,93762.72
2023-04-19T18:28:28.167Z,93772.94
2023-04-19T18:30:54.907Z,93769.22
2023-04-19T18:33:21.589Z,93777.56
2023-04-19T18:35:48.163Z,93780.44
2023-04-19T18:38:14.783Z,93777.53
2023-04-19T18:40:41.377Z,93788.25
2023-04-19T18:43:07.972Z,93793.00
2023-04-19T18:45:34.600Z,93782.81
2023-04-19T18:48:02.360Z,93779.88
2023-04-19T18:50:30.548Z,93789.56
2023-04-19T18:52:57.188Z,93787.06
2023-04-19T18:55:23.982Z,93790.44
2023-04-19T18:57:50.917Z,93790.97
2023-04-19T19:00:19.918Z,93785.06
2023-04-19T19:02:47.008Z,93794.53
2023-04-19T19:05:15.809Z,93799.50
2023-04-19T19:07:43.092Z,93801.31
2023-04-19T19:12:40.772Z,93801.72
2023-04-19T19:15:08.266Z,93803.41
2023-04-19T19:17:35.035Z,93804.78
2023-04-19T19:20:02.234Z,93799.41
2023-04-19T19:22:29.264Z,93800.97
2023-04-19T19:24:56.576Z,93799.00
2023-04-19T19:27:23.264Z,93811.72
2023-04-19T19:29:50.008Z,93808.47
2023-04-19T19:32:16.786Z,93807.34
2023-04-19T19:34:54.423Z,93810.06
2023-04-19T19:37:23.331Z,93814.44
2023-04-19T19:39:50.104Z,93811.75
2023-04-19T19:42:17.611Z,93816.91
2023-04-19T19:44:44.590Z,93813.41
2023-04-19T19:47:12.000Z,93815.09
2023-04-19T19:52:08.325Z,93811.56
2023-04-19T19:54:35.071Z,93811.69
2023-04-19T19:59:34.839Z,93816.91
2023-04-19T20:02:03.437Z,93814.25
2023-04-19T20:04:31.090Z,93813.63
2023-04-19T20:09:29.922Z,93822.63
2023-04-19T20:11:56.779Z,93817.47
2023-04-19T20:14:24.494Z,93826.63
2023-04-19T20:16:52.185Z,93821.16
2023-04-19T20:19:19.565Z,93818.56
2023-04-19T20:21:47.262Z,93819.91
2023-04-19T20:24:13.962Z,93819.19
2023-04-19T20:26:40.610Z,93814.16
2023-04-19T20:29:07.906Z,93830.91
2023-04-19T20:31:34.568Z,93820.44
2023-04-19T20:34:01.240Z,93821.78
2023-04-19T20:36:28.425Z,93814.63
2023-04-19T20:38:56.962Z,93816.63
2023-04-19T20:41:23.663Z,93809.16
2023-04-19T20:43:50.515Z,93804.56
2023-04-19T20:46:17.546Z,93807.47
2023-04-19T20:48:44.172Z,93815.19
2023-04-19T20:51:12.786Z,93815.13
2023-04-19T20:53:39.507Z,93812.13
2023-04-19T20:56:06.214Z,93809.44
2023-04-19T20:58:33.824Z,93805.97
2023-04-19T21:01:00.945Z,93811.81
2023-04-19T21:03:27.761Z,93818.22
2023-04-19T21:05:54.494Z,93816.22
2023-04-19T21:08:23.766Z,93822.25
2023-04-19T21:10:50.465Z,93816.59
2023-04-19T21:13:17.096Z,93813.09
2023-04-19T21:15:43.718Z,93814.19
2023-04-19T21:18:10.319Z,93810.97
2023-04-19T21:20:37.830Z,93814.56
2023-04-19T21:23:04.524Z,93810.34
2023-04-19T21:25:31.222Z,93810.47
2023-04-19T21:27:57.842Z,93818.47
2023-04-19T21:30:25.712Z,93811.50
2023-04-19T21:32:52.989Z,93811.72
2023-04-19T21:35:19.944Z,93815.38
2023-04-19T21:37:46.591Z,93823.00
2023-04-19T21:40:13.305Z,93825.00
2023-04-19T21:42:39.973Z,93816.56
2023-04-19T21:45:07.269Z,93821.34
2023-04-19T21:47:33.951Z,93824.88
2023-04-19T21:50:00.641Z,93826.94
2023-04-19T21:52:27.309Z,93819.13
2023-04-19T21:54:53.854Z,93818.94
2023-04-19T21:57:24.519Z,93826.66
2023-04-19T21:59:51.378Z,93822.69
2023-04-19T22:02:18.066Z,93816.41
2023-04-19T22:04:45.795Z,93818.09
2023-04-19T22:07:12.668Z,93814.28
2023-04-19T22:09:39.661Z,93814.59
2023-04-19T22:12:06.558Z,93817.19
2023-04-19T22:14:33.189Z,93821.91
2023-04-19T22:17:02.797Z,93816.84
2023-04-19T22:19:29.718Z,93810.72
2023-04-19T22:21:56.432Z,93815.28
2023-04-19T22:24:23.328Z,93815.31
2023-04-19T22:26:51.039Z,93820.59
2023-04-19T22:29:18.094Z,93811.28
2023-04-19T22:31:45.034Z,93817.69
2023-04-19T22:34:11.637Z,93815.53
2023-04-19T22:36:38.227Z,93809.63
2023-04-19T22:39:05.093Z,93803.97
2023-04-19T22:41:33.266Z,93809.06
2023-04-19T22:44:00.346Z,93803.34
2023-04-19T22:46:27.398Z,93808.69
2023-04-19T22:48:56.046Z,93807.28
2023-04-19T22:51:24.327Z,93804.75
2023-04-19T22:53:51.028Z,93805.88
2023-04-19T22:56:17.977Z,93804.06
2023-04-19T22:58:44.638Z,93794.16
2023-04-19T23:01:11.474Z,93799.41
2023-04-19T23:03:38.149Z,93801.16
2023-04-19T23:06:04.965Z,93796.59
2023-04-19T23:08:33.399Z,93795.59
2023-04-19T23:11:00.112Z,93791.09
2023-04-19T23:13:26.767Z,93796.09
2023-04-19T23:15:54.486Z,93791.34
2023-04-19T23:18:21.836Z,93799.41
2023-04-19T23:20:48.426Z,93787.78
2023-04-19T23:23:15.120Z,93793.91
2023-04-19T23:25:41.990Z,93788.47
2023-04-19T23:28:10.347Z,93787.22
2023-04-19T23:30:38.555Z,93783.47
2023-04-19T23:33:05.297Z,93784.56
2023-04-19T23:35:32.357Z,93780.88
2023-04-19T23:37:59.311Z,93787.78
2023-04-19T23:40:25.884Z,93781.63
2023-04-19T23:42:52.494Z,93776.00
2023-04-19T23:45:19.205Z,93770.75
2023-04-19T23:47:46.041Z,93771.00
2023-04-19T23:50:12.725Z,93770.19
2023-04-19T23:52:39.307Z,93772.41
2023-04-19T23:55:06.850Z,93764.28
2023-04-19T23:57:36.656Z,93769.22
